createdAt,value
2023-02-03T00:01:57.685Z,2.10
2023-02-03T00:04:24.478Z,2.10
2023-02-03T00:06:51.465Z,2.10
2023-02-03T00:09:19.066Z,2.10
2023-02-03T00:11:45.855Z,2.10
2023-02-03T00:14:12.520Z,2.10
2023-02-03T00:16:39.337Z,2.10
2023-02-03T00:19:06.067Z,2.10
2023-02-03T00:21:33.247Z,2.10
2023-02-03T00:23:59.918Z,2.10
2023-02-03T00:26:28.554Z,2.10
2023-02-03T00:28:55.205Z,2.10
2023-02-03T00:31:24.054Z,2.10
2023-02-03T00:33:56.042Z,2.10
2023-02-03T00:36:23.625Z,2.10
2023-02-03T00:38:50.457Z,2.10
2023-02-03T00:41:18.148Z,2.00
2023-02-03T00:43:45.054Z,2.00
2023-02-03T00:46:12.087Z,2.00
2023-02-03T00:48:38.900Z,2.00
2023-02-03T00:51:06.029Z,2.00
2023-02-03T00:53:32.948Z,2.00
2023-02-03T00:55:59.622Z,1.90
2023-02-03T00:58:26.473Z,2.00
2023-02-03T01:00:56.489Z,2.00
2023-02-03T01:03:24.441Z,2.00
2023-02-03T01:05:51.239Z,2.00
2023-02-03T01:08:19.594Z,2.00
2023-02-03T01:10:46.294Z,2.10
2023-02-03T01:13:13.001Z,2.10
2023-02-03T01:15:47.498Z,2.10
2023-02-03T01:18:14.460Z,2.10
2023-02-03T01:20:41.119Z,2.10
2023-02-03T01:23:07.780Z,2.10
2023-02-03T01:25:35.815Z,2.10
2023-02-03T01:28:02.596Z,2.10
2023-02-03T01:30:29.639Z,2.00
2023-02-03T01:32:56.730Z,2.00
2023-02-03T01:35:23.414Z,2.00
2023-02-03T01:37:50.114Z,2.00
2023-02-03T01:40:16.882Z,2.10
2023-02-03T01:42:43.560Z,2.10
2023-02-03T01:45:13.438Z,2.10
2023-02-03T01:47:52.878Z,2.10
2023-02-03T01:50:32.613Z,2.10
2023-02-03T01:53:12.241Z,2.10
2023-02-03T01:55:42.635Z,2.10
2023-02-03T01:58:22.321Z,2.10
2023-02-03T02:00:49.926Z,2.10
2023-02-03T02:03:19.698Z,2.10
2023-02-03T02:05:50.440Z,2.10
2023-02-03T02:08:19.933Z,2.10
2023-02-03T02:10:47.072Z,2.20
2023-02-03T02:13:15.620Z,2.10
2023-02-03T02:16:05.796Z,2.10
2023-02-03T02:19:05.569Z,2.10
2023-02-03T02:21:53.892Z,2.10
2023-02-03T02:24:45.759Z,2.10
2023-02-03T02:27:19.893Z,2.10
2023-02-03T02:30:24.797Z,2.00
2023-02-03T02:33:19.921Z,2.00
2023-02-03T02:39:08.289Z,2.00
2023-02-03T02:41:41.296Z,2.00
2023-02-03T02:44:14.243Z,2.00
2023-02-03T02:46:49.188Z,2.00
2023-02-03T02:49:46.334Z,2.00
2023-02-03T02:52:16.298Z,2.00
2023-02-03T02:54:47.922Z,2.00
2023-02-03T02:57:17.817Z,2.10
2023-02-03T02:59:46.599Z,2.00
2023-02-03T03:02:13.616Z,2.00
2023-02-03T03:04:41.895Z,2.00
2023-02-03T03:07:16.630Z,2.10
2023-02-03T03:09:48.759Z,2.10
2023-02-03T03:12:26.867Z,2.00
2023-02-03T03:15:03.778Z,2.00
2023-02-03T03:17:43.715Z,2.00
2023-02-03T03:20:19.536Z,2.00
2023-02-03T03:22:51.418Z,2.00
2023-02-03T03:25:27.140Z,2.00
2023-02-03T03:28:01.956Z,1.90
2023-02-03T03:30:37.273Z,1.90
2023-02-03T03:33:05.994Z,1.90
2023-02-03T03:35:58.942Z,1.90
2023-02-03T03:38:34.510Z,2.00
2023-02-03T03:41:14.967Z,2.00
2023-02-03T03:43:45.036Z,1.90
2023-02-03T03:46:17.268Z,1.90
2023-02-03T03:48:55.753Z,2.00
2023-02-03T03:51:37.022Z,1.90
2023-02-03T03:54:10.609Z,1.90
2023-02-03T03:56:45.273Z,1.90
2023-02-03T03:59:16.914Z,1.90
2023-02-03T04:01:44.253Z,1.90
2023-02-03T04:04:11.768Z,1.90
2023-02-03T04:06:39.761Z,1.90
2023-02-03T04:09:06.782Z,1.90
2023-02-03T04:11:52.328Z,1.90
2023-02-03T04:14:19.009Z,1.80
2023-02-03T04:16:45.674Z,1.80
2023-02-03T04:19:12.337Z,1.90
2023-02-03T04:21:39.014Z,1.90
2023-02-03T04:24:05.903Z,1.90
2023-02-03T04:26:32.614Z,1.90
2023-02-03T04:28:59.229Z,1.90
2023-02-03T04:31:26.042Z,1.90
2023-02-03T04:33:52.745Z,1.90
2023-02-03T04:36:19.413Z,1.90
2023-02-03T04:38:46.068Z,1.90
2023-02-03T04:41:12.763Z,1.90
2023-02-03T04:43:39.455Z,1.90
2023-02-03T04:46:06.215Z,1.90
2023-02-03T04:48:33.071Z,1.90
2023-02-03T04:51:04.927Z,1.80
2023-02-03T04:53:31.695Z,1.80
2023-02-03T04:55:58.453Z,1.80
2023-02-03T04:58:26.910Z,1.80
2023-02-03T05:00:54.764Z,1.80
2023-02-03T05:03:24.154Z,1.80
2023-02-03T05:05:52.437Z,1.80
2023-02-03T05:08:19.145Z,1.80
2023-02-03T05:10:46.262Z,1.80
2023-02-03T05:13:12.893Z,1.80
2023-02-03T05:15:39.526Z,1.80
2023-02-03T05:18:06.284Z,1.80
2023-02-03T05:20:32.916Z,1.80
2023-02-03T05:23:01.094Z,1.80
2023-02-03T05:25:27.744Z,1.80
2023-02-03T05:27:54.435Z,1.80
2023-02-03T05:30:21.296Z,1.80
2023-02-03T05:32:49.462Z,1.80
2023-02-03T05:35:16.171Z,1.80
2023-02-03T05:37:48.975Z,1.80
2023-02-03T05:40:34.444Z,1.80
2023-02-03T05:43:01.167Z,1.90
2023-02-03T05:45:27.843Z,1.90
2023-02-03T05:47:54.574Z,1.90
2023-02-03T05:50:22.782Z,1.90
2023-02-03T05:52:50.068Z,1.90
2023-02-03T05:55:16.835Z,1.90
2023-02-03T05:57:43.646Z,1.90
2023-02-03T06:00:10.927Z,1.90
2023-02-03T06:02:40.330Z,1.90
2023-02-03T06:05:07.307Z,1.90
2023-02-03T06:07:33.948Z,1.90
2023-02-03T06:10:00.584Z,1.90
2023-02-03T06:12:29.127Z,2.00
2023-02-03T06:14:56.211Z,2.00
2023-02-03T06:17:22.877Z,2.00
2023-02-03T06:19:49.552Z,2.00
2023-02-03T06:22:16.213Z,2.00
2023-02-03T06:24:44.799Z,2.00
2023-02-03T06:27:12.002Z,2.00
2023-02-03T06:29:38.686Z,2.00
2023-02-03T06:32:05.532Z,2.00
2023-02-03T06:34:33.117Z,2.00
2023-02-03T06:37:00.006Z,2.00
2023-02-03T06:39:26.812Z,2.00
2023-02-03T06:41:53.488Z,2.00
2023-02-03T06:44:20.141Z,2.00
2023-02-03T06:46:46.839Z,2.00
2023-02-03T06:49:13.612Z,2.00
2023-02-03T06:51:40.271Z,2.00
2023-02-03T06:54:07.710Z,2.00
2023-02-03T06:56:34.405Z,2.00
2023-02-03T06:59:01.068Z,1.90
2023-02-03T07:01:27.867Z,1.90
2023-02-03T07:03:57.789Z,2.00
2023-02-03T07:06:30.808Z,2.00
2023-02-03T07:09:00.712Z,2.00
2023-02-03T07:11:28.673Z,1.90
2023-02-03T07:13:55.345Z,1.90
2023-02-03T07:16:22.116Z,2.00
2023-02-03T07:18:49.522Z,2.00
2023-02-03T07:21:16.669Z,2.00
2023-02-03T07:23:43.773Z,2.00
2023-02-03T07:26:11.115Z,1.90
2023-02-03T07:28:37.922Z,2.00
2023-02-03T07:31:05.042Z,2.00
2023-02-03T07:33:32.179Z,2.00
2023-02-03T07:35:59.961Z,2.00
2023-02-03T07:38:28.019Z,2.10
2023-02-03T07:40:54.905Z,2.10
2023-02-03T07:43:21.576Z,2.10
2023-02-03T07:45:48.362Z,2.20
2023-02-03T07:48:15.161Z,2.20
2023-02-03T07:50:41.905Z,2.20
2023-02-03T07:53:11.615Z,2.20
2023-02-03T07:55:39.873Z,2.20
2023-02-03T07:58:06.943Z,2.30
2023-02-03T08:00:34.306Z,2.30
2023-02-03T08:03:00.994Z,2.30
2023-02-03T08:05:27.720Z,2.30
2023-02-03T08:07:54.429Z,2.30
2023-02-03T08:10:21.077Z,2.40
2023-02-03T08:12:48.089Z,2.30
2023-02-03T08:15:15.056Z,2.30
2023-02-03T08:17:42.071Z,2.40
2023-02-03T08:20:09.776Z,2.40
2023-02-03T08:22:36.596Z,2.40
2023-02-03T08:25:03.892Z,2.40
2023-02-03T08:27:31.898Z,2.40
2023-02-03T08:29:59.342Z,2.40
2023-02-03T08:32:26.639Z,2.40
2023-02-03T08:34:53.835Z,2.40
2023-02-03T08:37:24.308Z,2.40
2023-02-03T08:39:51.894Z,2.50
2023-02-03T08:42:19.436Z,2.60
2023-02-03T08:44:46.321Z,2.60
2023-02-03T08:47:13.372Z,2.60
2023-02-03T08:49:40.072Z,2.50
2023-02-03T08:52:08.981Z,2.50
2023-02-03T08:54:35.668Z,2.50
2023-02-03T08:57:02.449Z,2.50
2023-02-03T08:59:30.184Z,2.50
2023-02-03T09:01:59.762Z,2.50
2023-02-03T09:04:26.501Z,2.50
2023-02-03T09:06:54.516Z,2.50
2023-02-03T09:09:21.928Z,2.50
2023-02-03T09:11:48.878Z,2.60
2023-02-03T09:14:15.533Z,2.60
2023-02-03T09:16:42.328Z,2.60
2023-02-03T09:19:09.211Z,2.60
2023-02-03T09:21:37.262Z,2.70
2023-02-03T09:24:05.550Z,2.70
2023-02-03T09:26:32.222Z,2.70
2023-02-03T09:28:58.873Z,2.70
2023-02-03T09:31:25.627Z,2.70
2023-02-03T09:33:52.287Z,2.70
2023-02-03T09:36:19.033Z,2.80
2023-02-03T09:38:45.684Z,2.80
2023-02-03T09:41:51.594Z,2.90
2023-02-03T09:44:39.354Z,2.90
2023-02-03T09:47:14.630Z,3.00
2023-02-03T09:49:50.413Z,3.00
2023-02-03T09:52:54.171Z,3.10
2023-02-03T09:55:39.954Z,3.10
2023-02-03T09:58:11.855Z,3.10
2023-02-03T10:00:44.501Z,3.10
2023-02-03T10:03:43.179Z,3.10
2023-02-03T10:06:23.669Z,3.20
2023-02-03T10:09:08.062Z,3.40
2023-02-03T10:11:45.886Z,3.30
2023-02-03T10:14:30.563Z,3.20
2023-02-03T10:16:57.227Z,3.30
2023-02-03T10:19:36.271Z,3.40
2023-02-03T10:22:05.435Z,3.40
2023-02-03T10:24:40.509Z,3.40
2023-02-03T10:27:17.641Z,3.40
2023-02-03T10:29:44.743Z,3.50
2023-02-03T10:32:12.884Z,3.60
2023-02-03T10:34:43.491Z,3.60
2023-02-03T10:37:41.780Z,3.60
2023-02-03T10:40:13.123Z,3.60
2023-02-03T10:42:58.842Z,3.60
2023-02-03T10:45:25.574Z,3.60
2023-02-03T10:47:55.067Z,3.70
2023-02-03T10:50:31.552Z,3.70
2023-02-03T10:53:22.358Z,3.70
2023-02-03T10:55:52.499Z,3.60
2023-02-03T10:58:27.359Z,3.60
2023-02-03T11:01:13.572Z,3.60
2023-02-03T11:03:44.028Z,3.50
2023-02-03T11:06:12.491Z,3.50
2023-02-03T11:08:43.028Z,3.50
2023-02-03T11:11:14.631Z,3.50
2023-02-03T11:13:41.369Z,3.50
2023-02-03T11:16:18.313Z,3.50
2023-02-03T11:18:52.575Z,3.60
2023-02-03T11:21:31.887Z,3.50
2023-02-03T11:24:20.983Z,3.50
2023-02-03T11:26:53.887Z,3.60
2023-02-03T11:29:31.827Z,3.50
2023-02-03T11:32:03.272Z,3.50
2023-02-03T11:34:34.421Z,3.50
2023-02-03T11:37:27.325Z,3.60
2023-02-03T11:40:12.205Z,3.60
2023-02-03T11:42:49.445Z,3.60
2023-02-03T11:45:26.569Z,3.60
2023-02-03T11:48:11.836Z,3.60
2023-02-03T11:51:00.183Z,3.60
2023-02-03T11:53:56.959Z,3.60
2023-02-03T11:56:54.982Z,3.60
2023-02-03T11:59:45.329Z,3.60
2023-02-03T12:02:38.677Z,3.50
2023-02-03T12:05:17.562Z,3.50
2023-02-03T12:07:50.151Z,3.60
2023-02-03T12:10:31.569Z,3.60
2023-02-03T12:13:10.434Z,3.60
2023-02-03T12:16:17.322Z,3.70
2023-02-03T12:19:09.958Z,3.70
2023-02-03T12:22:09.821Z,3.70
2023-02-03T12:25:08.607Z,3.70
2023-02-03T12:27:56.108Z,3.70
2023-02-03T12:30:28.857Z,3.70
2023-02-03T12:33:00.269Z,3.70
2023-02-03T12:35:34.637Z,3.70
2023-02-03T12:38:12.323Z,3.70
2023-02-03T12:40:49.419Z,3.70
2023-02-03T12:43:23.538Z,3.60
2023-02-03T12:46:14.618Z,3.70
2023-02-03T12:49:00.565Z,3.80
2023-02-03T12:51:51.062Z,3.70
2023-02-03T12:54:45.289Z,3.80
2023-02-03T12:57:17.121Z,3.80
2023-02-03T12:59:46.582Z,3.80
2023-02-03T13:02:26.954Z,3.80
2023-02-03T13:05:10.349Z,3.80
2023-02-03T13:07:43.410Z,3.80
2023-02-03T13:10:33.062Z,3.80
2023-02-03T13:13:01.149Z,3.90
2023-02-03T13:15:32.747Z,3.90
2023-02-03T13:18:15.475Z,3.80
2023-02-03T13:20:42.089Z,3.80
2023-02-03T13:23:13.720Z,3.80
2023-02-03T13:26:08.827Z,3.80
2023-02-03T13:29:02.097Z,3.80
2023-02-03T13:31:47.382Z,3.90
2023-02-03T13:34:37.073Z,3.90
2023-02-03T13:37:15.859Z,3.90
2023-02-03T13:39:42.508Z,3.90
2023-02-03T13:42:25.940Z,4.00
2023-02-03T13:45:04.586Z,4.00
2023-02-03T13:47:32.663Z,3.90
2023-02-03T13:50:15.869Z,3.80
2023-02-03T13:52:56.301Z,3.80
2023-02-03T13:55:43.438Z,3.80
2023-02-03T13:58:34.202Z,3.80
2023-02-03T14:01:21.705Z,3.80
2023-02-03T14:03:48.604Z,3.80
2023-02-03T14:06:40.243Z,3.80
2023-02-03T14:09:35.609Z,3.70
2023-02-03T14:12:30.693Z,3.70
2023-02-03T14:15:19.794Z,3.80
2023-02-03T14:17:46.501Z,3.70
2023-02-03T14:20:28.184Z,3.80
2023-02-03T14:22:59.316Z,3.80
2023-02-03T14:25:27.331Z,3.80
2023-02-03T14:28:05.609Z,3.80
2023-02-03T14:30:32.383Z,3.70
2023-02-03T14:33:02.786Z,3.70
2023-02-03T14:35:40.642Z,3.70
2023-02-03T14:38:13.193Z,3.60
2023-02-03T14:40:39.774Z,3.60
2023-02-03T14:43:24.222Z,3.60
2023-02-03T14:46:05.159Z,3.60
2023-02-03T14:48:40.418Z,3.50
2023-02-03T14:51:09.924Z,3.50
2023-02-03T14:53:58.653Z,3.50
2023-02-03T14:57:04.162Z,3.60
2023-02-03T14:59:40.392Z,3.50
2023-02-03T15:02:09.420Z,3.50
2023-02-03T15:19:55.051Z,3.70
2023-02-03T15:22:23.325Z,3.50
2023-02-03T15:24:54.149Z,3.40
2023-02-03T15:27:25.515Z,3.40
2023-02-03T15:32:32.800Z,3.80
2023-02-03T15:35:03.097Z,3.40
2023-02-03T15:37:36.070Z,3.40
2023-02-03T15:40:18.351Z,3.40
2023-02-03T15:43:02.606Z,3.30
2023-02-03T15:45:39.837Z,3.30
2023-02-03T15:48:15.837Z,3.30
2023-02-03T15:50:44.112Z,3.30
2023-02-03T15:53:46.710Z,3.30
2023-02-03T15:56:41.004Z,3.30
2023-02-03T15:59:48.457Z,3.30
2023-02-03T16:02:19.811Z,3.20
2023-02-03T16:04:46.783Z,3.30
2023-02-03T16:07:26.479Z,3.30
2023-02-03T16:09:58.201Z,3.30
2023-02-03T16:12:32.543Z,3.30
2023-02-03T16:15:01.587Z,3.30
2023-02-03T16:17:34.786Z,3.30
2023-02-03T16:20:10.646Z,3.30
2023-02-03T16:22:38.816Z,3.30
2023-02-03T16:25:42.229Z,3.30
2023-02-03T16:28:27.467Z,3.30
2023-02-03T16:31:33.047Z,3.30
2023-02-03T16:34:20.417Z,3.20
2023-02-03T16:37:05.966Z,3.20
2023-02-03T16:39:51.446Z,3.30
2023-02-03T16:42:39.143Z,3.30
2023-02-03T16:45:37.032Z,3.30
2023-02-03T16:48:22.979Z,3.30
2023-02-03T16:50:59.734Z,3.30
2023-02-03T16:53:30.254Z,3.30
2023-02-03T16:55:59.306Z,3.30
2023-02-03T16:58:26.618Z,3.40
2023-02-03T17:00:54.446Z,3.30
2023-02-03T17:03:24.030Z,3.30
2023-02-03T17:05:51.738Z,3.30
2023-02-03T17:08:20.811Z,3.30
2023-02-03T17:10:48.057Z,3.30
2023-02-03T17:13:15.922Z,3.30
2023-02-03T17:15:45.089Z,3.30
2023-02-03T17:18:14.867Z,3.30
2023-02-03T17:20:42.724Z,3.30
2023-02-03T17:23:09.746Z,3.30
2023-02-03T17:25:39.534Z,3.30
2023-02-03T17:28:08.332Z,3.30
2023-02-03T17:30:35.543Z,3.30
2023-02-03T17:33:11.667Z,3.30
2023-02-03T17:35:39.949Z,3.30
2023-02-03T17:38:06.892Z,3.30
2023-02-03T17:54:17.782Z,3.40
2023-02-03T17:56:47.478Z,3.50
2023-02-03T17:59:15.018Z,3.40
2023-02-03T18:01:42.243Z,3.50
2023-02-03T18:04:09.009Z,3.40
2023-02-03T18:06:36.072Z,3.50
2023-02-03T18:09:05.912Z,3.50
2023-02-03T18:11:34.813Z,3.40
2023-02-03T18:14:02.546Z,3.40
2023-02-03T18:16:34.776Z,3.30
2023-02-03T18:19:03.819Z,3.30
2023-02-03T18:21:32.283Z,3.30
2023-02-03T18:24:01.609Z,3.30
2023-02-03T18:26:32.398Z,3.30
2023-02-03T18:28:59.198Z,3.20
2023-02-03T18:31:26.028Z,3.20
2023-02-03T18:33:53.373Z,3.20
2023-02-03T18:36:20.802Z,3.10
2023-02-03T18:38:48.158Z,3.00
2023-02-03T18:41:18.003Z,3.00
2023-02-03T18:43:45.768Z,3.00
2023-02-03T18:46:17.885Z,3.00
2023-02-03T18:48:44.868Z,3.00
2023-02-03T18:51:14.164Z,3.00
2023-02-03T18:53:41.844Z,3.00
2023-02-03T18:56:10.054Z,2.90
2023-02-03T18:58:37.723Z,3.00
2023-02-03T19:01:04.744Z,3.10
2023-02-03T19:03:31.492Z,3.10
2023-02-03T19:05:58.177Z,3.10
2023-02-03T19:08:24.904Z,3.10
2023-02-03T19:10:53.572Z,3.00
2023-02-03T19:13:21.899Z,3.00
2023-02-03T19:15:48.831Z,3.10
2023-02-03T19:18:16.229Z,3.00
2023-02-03T19:20:43.811Z,3.00
2023-02-03T19:23:13.342Z,3.00
2023-02-03T19:25:40.470Z,3.00
2023-02-03T19:28:14.166Z,3.00
2023-02-03T19:30:44.391Z,3.00
2023-02-03T19:33:11.651Z,3.00
2023-02-03T19:35:38.543Z,2.90
2023-02-03T19:38:05.616Z,3.00
2023-02-03T19:40:32.641Z,2.90
2023-02-03T19:42:59.600Z,2.90
2023-02-03T19:45:26.865Z,2.90
2023-02-03T19:47:53.571Z,2.80
2023-02-03T19:50:20.226Z,2.70
2023-02-03T19:52:48.585Z,2.80
2023-02-03T19:55:16.138Z,2.70
2023-02-03T19:57:42.894Z,2.70
2023-02-03T20:00:10.356Z,2.80
2023-02-03T20:02:45.257Z,2.70
2023-02-03T20:05:12.115Z,2.70
2023-02-03T20:07:38.948Z,2.70
2023-02-03T20:10:06.329Z,2.70
2023-02-03T20:12:33.052Z,2.60
2023-02-03T20:15:02.518Z,2.60
2023-02-03T20:17:29.310Z,2.60
2023-02-03T20:19:55.994Z,2.50
2023-02-03T20:22:23.046Z,2.50
2023-02-03T20:24:49.755Z,2.50
2023-02-03T20:27:17.825Z,2.50
2023-02-03T20:29:44.710Z,2.40
2023-02-03T20:32:11.597Z,2.50
2023-02-03T20:34:38.444Z,2.40
2023-02-03T20:37:06.640Z,2.40
2023-02-03T20:39:33.592Z,2.30
2023-02-03T20:42:00.456Z,2.40
2023-02-03T20:44:27.264Z,2.30
2023-02-03T20:46:55.748Z,2.30
2023-02-03T20:49:22.473Z,2.30
2023-02-03T20:51:50.022Z,2.30
2023-02-03T20:54:19.441Z,2.30
2023-02-03T20:56:46.241Z,2.20
2023-02-03T20:59:16.789Z,2.20
2023-02-03T21:01:43.723Z,2.20
2023-02-03T21:04:33.854Z,2.20
2023-02-03T21:07:01.453Z,2.10
2023-02-03T21:09:28.109Z,2.10
2023-02-03T21:11:55.355Z,2.10
2023-02-03T21:14:33.493Z,2.10
2023-02-03T21:17:00.595Z,2.10
2023-02-03T21:19:33.235Z,2.10
2023-02-03T21:22:07.350Z,2.00
2023-02-03T21:24:36.653Z,2.00
2023-02-03T21:27:24.310Z,2.00
2023-02-03T21:29:55.563Z,2.10
2023-02-03T21:32:24.032Z,2.10
2023-02-03T21:34:51.229Z,2.00
2023-02-03T21:37:20.989Z,2.00
2023-02-03T21:39:49.117Z,2.00
2023-02-03T21:42:40.803Z,2.00
2023-02-03T21:45:16.872Z,2.00
2023-02-03T21:47:45.189Z,2.00
2023-02-03T21:50:31.980Z,2.00
2023-02-03T21:53:07.971Z,1.90
2023-02-03T21:55:39.939Z,1.90
2023-02-03T21:58:30.301Z,1.90
2023-02-03T22:00:59.649Z,1.90
2023-02-03T22:03:29.922Z,1.90
2023-02-03T22:06:08.773Z,1.90
2023-02-03T22:08:40.494Z,1.90
2023-02-03T22:11:07.363Z,1.90
2023-02-03T22:13:34.331Z,1.90
2023-02-03T22:16:01.252Z,1.90
2023-02-03T22:18:27.967Z,1.90
2023-02-03T22:20:54.689Z,1.90
2023-02-03T22:23:21.723Z,1.90
2023-02-03T22:25:48.709Z,1.80
2023-02-03T22:28:15.635Z,1.80
2023-02-03T22:30:42.457Z,1.80
2023-02-03T22:33:09.573Z,1.80
2023-02-03T22:35:36.299Z,1.80
2023-02-03T22:38:02.997Z,1.80
2023-02-03T22:40:29.899Z,1.80
2023-02-03T22:42:56.907Z,1.80
2023-02-03T22:45:23.571Z,1.70
2023-02-03T22:47:50.280Z,1.70
2023-02-03T22:50:20.379Z,1.60
2023-02-03T22:52:50.723Z,1.60
2023-02-03T22:55:17.479Z,1.60
2023-02-03T22:57:44.169Z,1.50
2023-02-03T23:00:11.902Z,1.50
2023-02-03T23:02:39.736Z,1.40
2023-02-03T23:05:10.013Z,1.40
2023-02-03T23:07:37.297Z,1.40
2023-02-03T23:10:05.519Z,1.40
2023-02-03T23:12:32.231Z,1.40
2023-02-03T23:14:59.067Z,1.50
2023-02-03T23:17:25.875Z,1.50
2023-02-03T23:19:52.510Z,1.50
2023-02-03T23:22:19.232Z,1.60
2023-02-03T23:24:45.925Z,1.60
2023-02-03T23:27:12.938Z,1.60
2023-02-03T23:29:39.726Z,1.60
2023-02-03T23:32:07.727Z,1.60
2023-02-03T23:34:53.259Z,1.60
2023-02-03T23:37:20.020Z,1.60
2023-02-03T23:39:46.703Z,1.60
2023-02-03T23:42:13.370Z,1.60
2023-02-03T23:44:40.381Z,1.60
2023-02-03T23:47:07.289Z,1.60
2023-02-03T23:49:33.976Z,1.60
2023-02-03T23:52:00.661Z,1.60
2023-02-03T23:54:27.360Z,1.60
2023-02-03T23:56:54.120Z,1.50
2023-02-03T23:59:20.820Z,1.50
